createdAt,value
2022-10-11T00:00:15.609Z,100.00
2022-10-11T00:05:18.612Z,100.00
2022-10-11T00:10:22.517Z,100.00
2022-10-11T00:15:26.678Z,100.00
2022-10-11T00:20:29.570Z,100.00
2022-10-11T00:25:32.377Z,100.00
2022-10-11T00:30:36.530Z,100.00
2022-10-11T00:35:41.374Z,100.00
2022-10-11T00:40:44.272Z,100.00
2022-10-11T00:46:26.001Z,100.00
2022-10-11T00:51:39.837Z,100.00
2022-10-11T00:56:44.941Z,100.00
2022-10-11T01:01:49.157Z,100.00
2022-10-11T01:06:54.396Z,100.00
2022-10-11T01:12:00.452Z,100.00
2022-10-11T01:17:14.910Z,100.00
2022-10-11T01:22:36.308Z,100.00
2022-10-11T01:27:54.757Z,100.00
2022-10-11T01:33:18.769Z,100.00
2022-10-11T01:38:29.874Z,100.00
2022-10-11T01:43:35.009Z,100.00
2022-10-11T01:48:50.054Z,100.00
2022-10-11T01:54:35.240Z,100.00
2022-10-11T01:59:59.963Z,100.00
2022-10-11T02:05:10.489Z,100.00
2022-10-11T02:10:18.737Z,100.00
2022-10-11T02:15:23.766Z,100.00
2022-10-11T02:20:31.564Z,100.00
2022-10-11T02:25:37.199Z,100.00
2022-10-11T02:30:43.426Z,100.00
2022-10-11T02:35:53.173Z,100.00
2022-10-11T02:40:59.687Z,100.00
2022-10-11T02:46:04.034Z,100.00
2022-10-11T02:51:14.112Z,100.00
2022-10-11T02:56:16.873Z,100.00
2022-10-11T03:01:19.722Z,100.00
2022-10-11T03:06:24.148Z,100.00
2022-10-11T03:11:27.001Z,100.00
2022-10-11T03:16:29.798Z,100.00
2022-10-11T03:21:33.981Z,100.00
2022-10-11T03:26:36.783Z,100.00
2022-10-11T03:31:40.213Z,100.00
2022-10-11T03:36:44.406Z,100.00
2022-10-11T03:41:47.229Z,100.00
2022-10-11T03:46:49.996Z,100.00
2022-10-11T03:51:54.087Z,100.00
2022-10-11T03:56:58.169Z,100.00
2022-10-11T04:02:01.091Z,100.00
2022-10-11T04:07:05.361Z,100.00
2022-10-11T04:12:08.362Z,100.00
2022-10-11T04:17:11.530Z,100.00
2022-10-11T04:22:15.735Z,100.00
2022-10-11T04:27:18.480Z,100.00
2022-10-11T04:32:21.333Z,100.00
2022-10-11T04:37:25.559Z,100.00
2022-10-11T04:42:28.357Z,100.00
2022-10-11T04:47:31.085Z,100.00
2022-10-11T04:52:35.184Z,100.00
2022-10-11T04:57:37.919Z,100.00
2022-10-11T05:02:40.628Z,100.00
2022-10-11T05:07:44.965Z,100.00
2022-10-11T05:12:47.783Z,100.00
2022-10-11T05:17:50.679Z,100.00
2022-10-11T05:22:55.079Z,100.00
2022-10-11T05:27:58.051Z,100.00
2022-10-11T05:33:00.942Z,100.00
2022-10-11T05:38:05.089Z,100.00
2022-10-11T05:43:08.589Z,100.00
2022-10-11T05:48:12.306Z,100.00
2022-10-11T05:53:17.809Z,100.00
2022-10-11T05:58:20.617Z,100.00
2022-10-11T06:03:24.158Z,100.00
2022-10-11T06:08:28.214Z,100.00
2022-10-11T06:13:31.029Z,100.00
2022-10-11T06:18:33.794Z,100.00
2022-10-11T06:23:37.962Z,100.00
2022-10-11T06:28:40.828Z,100.00
2022-10-11T06:33:43.771Z,100.00
2022-10-11T06:38:47.975Z,100.00
2022-10-11T06:43:50.803Z,100.00
2022-10-11T06:48:54.061Z,100.00
2022-10-11T06:54:01.783Z,98.49
2022-10-11T06:59:04.660Z,91.01
2022-10-11T07:04:08.091Z,85.52
2022-10-11T07:09:12.413Z,80.32
2022-10-11T07:14:15.222Z,79.57
2022-10-11T07:19:17.951Z,81.58
2022-10-11T07:24:22.098Z,86.89
2022-10-11T07:29:24.898Z,89.94
2022-10-11T07:34:27.716Z,93.18
2022-10-11T07:39:32.042Z,95.21
2022-10-11T07:44:35.044Z,93.30
2022-10-11T07:49:37.865Z,93.31
2022-10-11T07:54:42.129Z,94.89
2022-10-11T07:59:50.011Z,92.71
2022-10-11T08:04:53.127Z,93.71
2022-10-11T08:09:57.896Z,93.11
2022-10-11T08:15:01.399Z,91.30
2022-10-11T08:20:04.667Z,92.16
2022-10-11T08:25:09.477Z,90.06
2022-10-11T08:30:13.602Z,90.01
2022-10-11T08:35:16.560Z,88.56
2022-10-11T08:40:22.711Z,86.27
2022-10-11T08:45:32.251Z,86.29
2022-10-11T08:50:41.035Z,86.20
2022-10-11T08:55:49.106Z,85.25
2022-10-11T09:00:55.206Z,84.14
2022-10-11T09:06:09.000Z,84.01
2022-10-11T09:11:21.269Z,83.38
2022-10-11T09:16:32.978Z,81.71
2022-10-11T09:21:48.382Z,82.12
2022-10-11T09:26:56.983Z,81.54
2022-10-11T09:32:00.385Z,81.88
2022-10-11T09:37:12.416Z,81.35
2022-10-11T09:42:16.500Z,80.10
2022-10-11T09:47:23.514Z,79.99
2022-10-11T09:52:27.143Z,79.84
2022-10-11T09:57:33.225Z,78.68
2022-10-11T10:02:47.525Z,75.88
2022-10-11T10:08:22.414Z,74.11
2022-10-11T10:13:30.102Z,71.74
2022-10-11T10:18:35.966Z,70.23
2022-10-11T10:23:39.098Z,66.97
2022-10-11T10:28:58.014Z,69.90
2022-10-11T10:34:02.281Z,71.94
2022-10-11T10:39:17.251Z,71.25
2022-10-11T10:44:21.491Z,69.13
2022-10-11T10:54:57.513Z,64.79
2022-10-11T11:00:13.702Z,64.04
2022-10-11T11:05:28.414Z,63.07
2022-10-11T11:10:37.698Z,63.06
2022-10-11T11:15:47.946Z,63.27
2022-10-11T11:21:06.075Z,63.53
2022-10-11T11:26:18.306Z,62.41
2022-10-11T11:31:38.604Z,63.55
2022-10-11T11:36:45.731Z,64.09
2022-10-11T11:41:54.498Z,65.20
2022-10-11T11:47:02.001Z,65.52
2022-10-11T11:52:07.519Z,66.14
2022-10-11T11:57:23.225Z,63.72
2022-10-11T12:02:42.568Z,64.89
2022-10-11T12:07:56.426Z,64.05
2022-10-11T12:13:20.277Z,64.73
2022-10-11T12:18:24.670Z,66.16
2022-10-11T12:23:43.360Z,66.31
2022-10-11T12:29:03.693Z,66.56
2022-10-11T12:34:35.304Z,65.05
2022-10-11T12:39:51.234Z,64.71
2022-10-11T12:45:30.602Z,65.72
2022-10-11T12:50:45.811Z,68.07
2022-10-11T12:55:58.935Z,69.97
2022-10-11T13:01:12.987Z,71.26
2022-10-11T13:06:20.694Z,72.36
2022-10-11T13:11:26.353Z,73.16
2022-10-11T13:16:31.265Z,73.58
2022-10-11T13:21:38.603Z,73.39
2022-10-11T13:26:42.050Z,72.12
2022-10-11T13:31:47.585Z,70.57
2022-10-11T13:36:56.426Z,70.59
2022-10-11T13:42:00.626Z,69.71
2022-10-11T13:47:07.230Z,70.28
2022-10-11T13:52:23.349Z,69.63
2022-10-11T13:57:35.929Z,68.09
2022-10-11T14:02:39.412Z,66.77
2022-10-11T14:07:43.616Z,66.40
2022-10-11T14:13:00.333Z,66.70
2022-10-11T14:18:24.457Z,66.90
2022-10-11T14:23:28.645Z,68.68
2022-10-11T14:28:31.663Z,68.76
2022-10-11T14:33:35.078Z,69.97
2022-10-11T14:38:39.219Z,69.97
2022-10-11T14:43:42.033Z,69.65
2022-10-11T14:48:55.048Z,70.51
2022-10-11T14:53:59.945Z,72.05
2022-10-11T14:59:02.756Z,72.96
2022-10-11T15:04:05.801Z,72.75
2022-10-11T15:09:10.174Z,72.35
2022-10-11T15:14:13.000Z,71.88
2022-10-11T15:19:17.988Z,71.63
2022-10-11T15:24:22.093Z,71.46
2022-10-11T15:29:26.826Z,71.66
2022-10-11T15:34:29.553Z,71.89
2022-10-11T15:39:33.885Z,73.07
2022-10-11T15:44:36.659Z,73.84
2022-10-11T15:49:39.448Z,73.83
2022-10-11T15:54:43.649Z,74.60
2022-10-11T15:59:46.481Z,75.67
2022-10-11T16:04:49.278Z,76.16
2022-10-11T16:09:53.880Z,75.86
2022-10-11T16:14:56.981Z,76.12
2022-10-11T16:20:03.040Z,76.61
2022-10-11T16:25:07.856Z,77.16
2022-10-11T16:30:12.763Z,77.53
2022-10-11T16:35:16.655Z,78.13
2022-10-11T16:40:22.053Z,77.93
2022-10-11T16:45:24.888Z,78.78
2022-10-11T16:50:29.078Z,79.67
2022-10-11T16:55:33.193Z,80.93
2022-10-11T17:00:42.644Z,81.75
2022-10-11T17:05:45.749Z,83.22
2022-10-11T17:10:57.861Z,82.78
2022-10-11T17:16:00.933Z,82.63
2022-10-11T17:21:04.644Z,83.39
2022-10-11T17:26:11.903Z,83.93
2022-10-11T17:31:14.936Z,83.97
2022-10-11T17:36:22.484Z,84.21
2022-10-11T17:41:31.613Z,84.83
2022-10-11T17:46:34.928Z,86.11
2022-10-11T17:51:38.342Z,85.58
2022-10-11T17:56:43.571Z,85.27
2022-10-11T18:01:46.418Z,85.32
2022-10-11T18:06:49.705Z,85.41
2022-10-11T18:11:54.021Z,84.66
2022-10-11T18:16:57.820Z,85.59
2022-10-11T18:22:05.858Z,86.93
2022-10-11T18:27:11.161Z,87.27
2022-10-11T18:32:14.164Z,87.43
2022-10-11T18:37:17.366Z,87.74
2022-10-11T18:42:21.620Z,89.28
2022-10-11T18:47:24.444Z,91.10
2022-10-11T18:52:27.932Z,93.28
2022-10-11T18:57:32.355Z,94.31
2022-10-11T19:02:38.032Z,95.89
2022-10-11T19:07:41.621Z,96.45
2022-10-11T19:12:45.763Z,97.03
2022-10-11T19:17:48.565Z,98.14
2022-10-11T19:22:51.409Z,99.36
2022-10-11T19:27:55.707Z,99.57
2022-10-11T19:32:58.520Z,100.00
2022-10-11T19:38:01.374Z,100.00
2022-10-11T19:43:05.616Z,100.00
2022-10-11T19:48:08.396Z,100.00
2022-10-11T19:53:13.632Z,100.00
2022-10-11T19:58:17.835Z,100.00
2022-10-11T20:03:20.622Z,100.00
2022-10-11T20:08:23.830Z,100.00
2022-10-11T20:13:32.532Z,100.00
2022-10-11T20:18:38.764Z,100.00
2022-10-11T20:23:43.677Z,100.00
2022-10-11T20:28:53.590Z,100.00
2022-10-11T20:34:01.261Z,100.00
2022-10-11T20:39:05.416Z,100.00
2022-10-11T20:44:11.187Z,100.00
2022-10-11T20:49:14.095Z,100.00
2022-10-11T20:54:17.125Z,100.00
2022-10-11T20:59:21.327Z,100.00
2022-10-11T21:04:24.106Z,100.00
2022-10-11T21:09:26.816Z,100.00
2022-10-11T21:14:31.051Z,100.00
2022-10-11T21:19:33.764Z,100.00
2022-10-11T21:24:36.474Z,100.00
2022-10-11T21:29:40.618Z,100.00
2022-10-11T21:34:43.405Z,100.00
2022-10-11T21:39:46.129Z,100.00
2022-10-11T21:44:50.188Z,100.00
2022-10-11T21:49:52.946Z,100.00
2022-10-11T21:54:55.891Z,100.00
2022-10-11T22:00:00.038Z,100.00
2022-10-11T22:05:02.749Z,100.00
2022-10-11T22:10:06.022Z,100.00
2022-10-11T22:15:11.258Z,100.00
2022-10-11T22:20:14.032Z,100.00
2022-10-11T22:25:16.888Z,100.00
2022-10-11T22:30:21.210Z,100.00
2022-10-11T22:35:24.434Z,100.00
2022-10-11T22:40:27.316Z,100.00
2022-10-11T22:45:31.454Z,100.00
2022-10-11T22:50:34.363Z,100.00
2022-10-11T22:55:37.672Z,100.00
2022-10-11T23:00:41.798Z,100.00
2022-10-11T23:05:44.574Z,100.00
2022-10-11T23:10:47.312Z,100.00
2022-10-11T23:15:51.382Z,100.00
2022-10-11T23:20:54.088Z,100.00
2022-10-11T23:26:04.681Z,100.00
2022-10-11T23:31:10.035Z,100.00
2022-10-11T23:36:16.513Z,100.00
2022-10-11T23:41:19.248Z,100.00
2022-10-11T23:46:23.514Z,100.00
2022-10-11T23:51:26.305Z,100.00
2022-10-11T23:56:29.149Z,100.00
